createdAt,value
2022-12-11T00:00:09.505Z,0.00
2022-12-11T00:01:09.542Z,0.00
2022-12-11T00:02:09.556Z,0.00
2022-12-11T00:03:14.274Z,0.00
2022-12-11T00:04:09.475Z,0.00
2022-12-11T00:05:09.796Z,0.00
2022-12-11T00:06:09.460Z,0.00
2022-12-11T00:07:09.423Z,0.00
2022-12-11T00:08:09.470Z,0.00
2022-12-11T00:09:09.404Z,0.00
2022-12-11T00:10:09.465Z,0.00
2022-12-11T00:11:09.414Z,0.00
2022-12-11T00:12:09.445Z,0.00
2022-12-11T00:13:09.374Z,0.00
2022-12-11T00:14:09.363Z,0.00
2022-12-11T00:15:09.716Z,0.00
2022-12-11T00:16:09.448Z,0.00
2022-12-11T00:17:09.430Z,0.00
2022-12-11T00:18:09.432Z,0.00
2022-12-11T00:19:09.335Z,0.00
2022-12-11T00:20:09.332Z,0.00
2022-12-11T00:21:09.313Z,0.00
2022-12-11T00:22:09.304Z,0.00
2022-12-11T00:23:09.280Z,0.00
2022-12-11T00:24:09.274Z,0.00
2022-12-11T00:25:09.636Z,0.00
2022-12-11T00:26:09.295Z,0.00
2022-12-11T00:27:09.221Z,0.00
2022-12-11T00:28:09.229Z,0.00
2022-12-11T00:29:09.204Z,0.00
2022-12-11T00:30:09.225Z,0.00
2022-12-11T00:31:09.216Z,0.00
2022-12-11T00:32:09.264Z,0.00
2022-12-11T00:33:09.163Z,0.00
2022-12-11T00:34:09.157Z,0.00
2022-12-11T00:35:09.517Z,0.00
2022-12-11T00:36:09.176Z,0.00
2022-12-11T00:37:09.203Z,0.00
2022-12-11T00:38:09.121Z,0.00
2022-12-11T00:39:09.099Z,0.00
2022-12-11T00:40:09.106Z,0.00
2022-12-11T00:41:09.123Z,0.00
2022-12-11T00:42:09.073Z,0.00
2022-12-11T00:43:09.060Z,0.00
2022-12-11T00:44:09.051Z,0.00
2022-12-11T00:45:09.500Z,0.00
2022-12-11T00:46:09.101Z,0.00
2022-12-11T00:47:09.013Z,0.00
2022-12-11T00:48:09.044Z,0.00
2022-12-11T00:49:09.015Z,0.00
2022-12-11T00:50:09.011Z,0.00
2022-12-11T00:51:09.015Z,0.00
2022-12-11T00:52:15.456Z,0.00
2022-12-11T00:53:08.946Z,0.00
2022-12-11T00:54:08.956Z,0.00
2022-12-11T00:55:09.394Z,0.00
2022-12-11T00:56:09.002Z,0.00
2022-12-11T00:57:08.915Z,0.00
2022-12-11T00:58:08.924Z,0.00
2022-12-11T00:59:08.922Z,0.00
2022-12-11T01:00:08.893Z,0.00
2022-12-11T01:01:08.897Z,0.00
2022-12-11T01:02:08.934Z,0.00
2022-12-11T01:03:08.909Z,0.00
2022-12-11T01:04:08.861Z,0.00
2022-12-11T01:05:09.243Z,0.00
2022-12-11T01:06:08.822Z,0.00
2022-12-11T01:07:08.883Z,0.00
2022-12-11T01:08:08.851Z,0.00
2022-12-11T01:09:08.788Z,0.00
2022-12-11T01:10:08.851Z,0.00
2022-12-11T01:11:08.779Z,0.00
2022-12-11T01:12:08.792Z,0.00
2022-12-11T01:13:08.753Z,0.00
2022-12-11T01:14:08.748Z,0.00
2022-12-11T01:15:09.105Z,0.00
2022-12-11T01:16:08.745Z,0.00
2022-12-11T01:17:08.770Z,0.00
2022-12-11T01:18:08.729Z,0.00
2022-12-11T01:19:08.720Z,0.00
2022-12-11T01:20:08.687Z,0.00
2022-12-11T01:21:08.666Z,0.00
2022-12-11T01:22:08.690Z,0.00
2022-12-11T01:23:08.680Z,0.00
2022-12-11T01:24:08.652Z,0.00
2022-12-11T01:25:09.012Z,0.00
2022-12-11T01:26:08.663Z,0.00
2022-12-11T01:27:08.648Z,0.00
2022-12-11T01:28:08.646Z,0.00
2022-12-11T01:29:08.597Z,0.00
2022-12-11T01:30:08.620Z,0.00
2022-12-11T01:31:15.153Z,0.00
2022-12-11T01:32:16.101Z,0.00
2022-12-11T01:33:15.031Z,0.00
2022-12-11T01:34:08.535Z,0.00
2022-12-11T01:35:08.947Z,0.00
2022-12-11T01:36:08.526Z,0.00
2022-12-11T01:37:08.554Z,0.00
2022-12-11T01:38:08.508Z,0.00
2022-12-11T01:39:08.482Z,0.00
2022-12-11T01:40:08.489Z,0.00
2022-12-11T01:41:08.467Z,0.00
2022-12-11T01:42:08.488Z,0.00
2022-12-11T01:43:08.468Z,0.00
2022-12-11T01:44:08.473Z,0.00
2022-12-11T01:45:08.791Z,0.00
2022-12-11T01:46:08.520Z,0.00
2022-12-11T01:47:08.442Z,0.00
2022-12-11T01:48:08.412Z,0.00
2022-12-11T01:49:08.409Z,0.00
2022-12-11T01:50:08.386Z,0.00
2022-12-11T01:51:08.361Z,0.00
2022-12-11T01:52:08.425Z,0.00
2022-12-11T01:53:08.397Z,0.00
2022-12-11T01:54:08.338Z,0.00
2022-12-11T01:55:08.800Z,0.00
2022-12-11T01:56:08.329Z,0.00
2022-12-11T01:57:08.323Z,0.00
2022-12-11T01:58:08.331Z,0.00
2022-12-11T01:59:08.289Z,0.00
2022-12-11T02:00:08.294Z,0.00
2022-12-11T02:01:08.308Z,0.00
2022-12-11T02:02:08.318Z,0.00
2022-12-11T02:03:08.280Z,0.00
2022-12-11T02:04:08.247Z,0.00
2022-12-11T02:05:08.707Z,0.00
2022-12-11T02:06:08.250Z,0.00
2022-12-11T02:07:08.199Z,0.00
2022-12-11T02:08:08.278Z,0.00
2022-12-11T02:09:08.179Z,0.00
2022-12-11T02:10:08.200Z,0.00
2022-12-11T02:11:08.174Z,0.00
2022-12-11T02:12:08.152Z,0.00
2022-12-11T02:13:08.161Z,0.00
2022-12-11T02:14:08.139Z,0.00
2022-12-11T02:15:08.545Z,0.00
2022-12-11T02:16:08.146Z,0.00
2022-12-11T02:17:08.097Z,0.00
2022-12-11T02:18:08.131Z,0.00
2022-12-11T02:19:08.081Z,0.00
2022-12-11T02:20:08.074Z,0.00
2022-12-11T02:21:08.061Z,0.00
2022-12-11T02:22:08.071Z,0.00
2022-12-11T02:23:08.071Z,0.00
2022-12-11T02:24:08.031Z,0.00
2022-12-11T02:25:08.398Z,0.00
2022-12-11T02:26:08.022Z,0.00
2022-12-11T02:27:08.008Z,0.00
2022-12-11T02:28:08.009Z,0.00
2022-12-11T02:29:07.979Z,0.00
2022-12-11T02:30:07.999Z,0.00
2022-12-11T02:31:08.029Z,0.00
2022-12-11T02:32:07.943Z,0.00
2022-12-11T02:33:07.965Z,0.00
2022-12-11T02:34:07.938Z,0.00
2022-12-11T02:35:08.192Z,0.00
2022-12-11T02:36:07.916Z,0.00
2022-12-11T02:37:07.893Z,0.00
2022-12-11T02:38:07.921Z,0.00
2022-12-11T02:39:07.877Z,0.00
2022-12-11T02:40:07.884Z,0.00
2022-12-11T02:41:07.848Z,0.00
2022-12-11T02:42:07.842Z,0.00
2022-12-11T02:43:07.851Z,0.00
2022-12-11T02:44:07.832Z,0.00
2022-12-11T02:45:08.028Z,0.00
2022-12-11T02:46:07.951Z,0.00
2022-12-11T02:47:07.789Z,0.00
2022-12-11T02:48:07.812Z,0.00
2022-12-11T02:49:07.778Z,0.00
2022-12-11T02:50:07.774Z,0.00
2022-12-11T02:51:07.746Z,0.00
2022-12-11T02:52:07.750Z,0.00
2022-12-11T02:53:07.746Z,0.00
2022-12-11T02:54:07.725Z,0.00
2022-12-11T02:55:07.874Z,0.00
2022-12-11T02:56:07.702Z,0.00
2022-12-11T02:57:07.699Z,0.00
2022-12-11T02:58:07.700Z,0.00
2022-12-11T02:59:07.668Z,0.00
2022-12-11T03:00:07.664Z,0.00
2022-12-11T03:01:07.679Z,0.00
2022-12-11T03:02:07.709Z,0.00
2022-12-11T03:03:07.669Z,0.00
2022-12-11T03:04:07.628Z,0.00
2022-12-11T03:05:07.868Z,0.00
2022-12-11T03:06:07.594Z,0.00
2022-12-11T03:07:07.619Z,0.00
2022-12-11T03:08:07.677Z,0.00
2022-12-11T03:09:07.561Z,0.00
2022-12-11T03:10:07.585Z,0.00
2022-12-11T03:11:07.578Z,0.00
2022-12-11T03:12:07.548Z,0.00
2022-12-11T03:13:07.606Z,0.00
2022-12-11T03:14:07.533Z,0.00
2022-12-11T03:15:07.734Z,0.00
2022-12-11T03:16:07.508Z,0.00
2022-12-11T03:17:07.555Z,0.00
2022-12-11T03:18:07.502Z,0.00
2022-12-11T03:19:07.475Z,0.00
2022-12-11T03:20:07.463Z,0.00
2022-12-11T03:21:07.495Z,0.00
2022-12-11T03:22:07.438Z,0.00
2022-12-11T03:23:07.417Z,0.00
2022-12-11T03:24:07.433Z,0.00
2022-12-11T03:25:07.397Z,0.00
2022-12-11T03:26:07.446Z,0.00
2022-12-11T03:27:11.103Z,0.00
2022-12-11T03:28:07.395Z,0.00
2022-12-11T03:29:07.375Z,0.00
2022-12-11T03:30:07.495Z,0.00
2022-12-11T03:31:07.489Z,0.00
2022-12-11T03:32:07.353Z,0.00
2022-12-11T03:33:07.327Z,0.00
2022-12-11T03:34:07.334Z,0.00
2022-12-11T03:35:07.302Z,0.00
2022-12-11T03:36:07.387Z,0.00
2022-12-11T03:37:07.285Z,0.00
2022-12-11T03:38:07.315Z,0.00
2022-12-11T03:39:07.280Z,0.00
2022-12-11T03:40:13.727Z,0.00
2022-12-11T03:41:07.269Z,0.00
2022-12-11T03:42:07.222Z,0.00
2022-12-11T03:43:07.217Z,0.00
2022-12-11T03:44:07.238Z,0.00
2022-12-11T03:45:07.192Z,0.00
2022-12-11T03:46:07.316Z,0.00
2022-12-11T03:47:07.218Z,0.00
2022-12-11T03:48:07.169Z,0.00
2022-12-11T03:49:07.166Z,0.00
2022-12-11T03:50:07.165Z,0.00
2022-12-11T03:51:07.378Z,0.00
2022-12-11T03:52:07.126Z,0.00
2022-12-11T03:53:07.111Z,0.00
2022-12-11T03:54:07.140Z,0.00
2022-12-11T03:55:07.095Z,0.00
2022-12-11T03:56:07.085Z,0.00
2022-12-11T03:57:07.091Z,0.00
2022-12-11T03:58:07.067Z,0.00
2022-12-11T03:59:07.091Z,0.00
2022-12-11T04:00:07.046Z,0.00
2022-12-11T04:01:07.021Z,0.00
2022-12-11T04:02:07.060Z,0.00
2022-12-11T04:03:13.034Z,0.00
2022-12-11T04:04:07.070Z,0.00
2022-12-11T04:05:06.980Z,0.00
2022-12-11T04:06:06.989Z,0.00
2022-12-11T04:07:06.994Z,0.00
2022-12-11T04:08:06.977Z,0.00
2022-12-11T04:09:06.961Z,0.00
2022-12-11T04:10:06.951Z,0.00
2022-12-11T04:11:06.919Z,0.00
2022-12-11T04:12:06.914Z,0.00
2022-12-11T04:13:06.903Z,0.00
2022-12-11T04:14:06.929Z,0.00
2022-12-11T04:15:06.887Z,0.00
2022-12-11T04:16:06.916Z,0.00
2022-12-11T04:17:06.883Z,0.00
2022-12-11T04:18:06.855Z,0.00
2022-12-11T04:19:06.888Z,0.00
2022-12-11T04:20:06.840Z,0.00
2022-12-11T04:21:06.817Z,0.00
2022-12-11T04:22:06.873Z,0.00
2022-12-11T04:23:06.824Z,0.00
2022-12-11T04:24:06.862Z,0.00
2022-12-11T04:25:06.805Z,0.00
2022-12-11T04:26:06.771Z,0.00
2022-12-11T04:27:06.769Z,0.00
2022-12-11T04:28:06.798Z,0.00
2022-12-11T04:29:06.736Z,0.00
2022-12-11T04:30:06.803Z,0.00
2022-12-11T04:31:06.845Z,0.00
2022-12-11T04:32:06.750Z,0.00
2022-12-11T04:33:06.708Z,0.00
2022-12-11T04:34:06.687Z,0.00
2022-12-11T04:35:06.702Z,0.00
2022-12-11T04:36:06.681Z,0.00
2022-12-11T04:37:06.651Z,0.00
2022-12-11T04:38:06.650Z,0.00
2022-12-11T04:39:06.630Z,0.00
2022-12-11T04:40:06.677Z,0.00
2022-12-11T04:41:06.626Z,0.00
2022-12-11T04:42:06.618Z,0.00
2022-12-11T04:43:06.595Z,0.00
2022-12-11T04:44:06.584Z,0.00
2022-12-11T04:45:06.596Z,0.00
2022-12-11T04:46:06.617Z,0.00
2022-12-11T04:47:06.554Z,0.00
2022-12-11T04:48:06.551Z,0.00
2022-12-11T04:49:06.530Z,0.00
2022-12-11T04:50:06.570Z,0.00
2022-12-11T04:51:06.558Z,0.00
2022-12-11T04:52:06.505Z,0.00
2022-12-11T04:53:06.496Z,0.00
2022-12-11T04:54:06.506Z,0.00
2022-12-11T04:55:06.494Z,0.00
2022-12-11T04:56:06.535Z,0.00
2022-12-11T04:57:06.473Z,0.00
2022-12-11T04:58:12.927Z,0.00
2022-12-11T04:59:06.427Z,0.00
2022-12-11T05:00:06.445Z,0.00
2022-12-11T05:01:06.448Z,0.00
2022-12-11T05:02:06.412Z,0.00
2022-12-11T05:03:06.410Z,0.00
2022-12-11T05:04:06.392Z,0.00
2022-12-11T05:05:06.410Z,0.00
2022-12-11T05:06:06.444Z,0.00
2022-12-11T05:07:06.357Z,0.00
2022-12-11T05:08:06.385Z,0.00
2022-12-11T05:09:06.333Z,0.00
2022-12-11T05:10:06.385Z,0.00
2022-12-11T05:11:06.486Z,0.00
2022-12-11T05:12:06.328Z,0.00
2022-12-11T05:13:06.358Z,0.00
2022-12-11T05:14:06.276Z,0.00
2022-12-11T05:15:06.352Z,0.00
2022-12-11T05:16:06.485Z,0.00
2022-12-11T05:17:06.247Z,0.00
2022-12-11T05:18:06.254Z,0.00
2022-12-11T05:19:06.223Z,0.00
2022-12-11T05:20:06.233Z,0.00
2022-12-11T05:21:06.228Z,0.00
2022-12-11T05:22:06.196Z,0.00
2022-12-11T05:23:06.192Z,0.00
2022-12-11T05:24:06.170Z,0.00
2022-12-11T05:25:06.203Z,0.00
2022-12-11T05:26:06.184Z,0.00
2022-12-11T05:27:06.134Z,0.00
2022-12-11T05:28:06.132Z,0.00
2022-12-11T05:29:06.137Z,0.00
2022-12-11T05:30:06.176Z,0.00
2022-12-11T05:31:06.279Z,0.00
2022-12-11T05:32:06.125Z,0.00
2022-12-11T05:33:06.075Z,0.00
2022-12-11T05:34:06.069Z,0.00
2022-12-11T05:35:06.070Z,0.00
2022-12-11T05:36:06.095Z,0.00
2022-12-11T05:37:06.039Z,0.00
2022-12-11T05:38:06.036Z,0.00
2022-12-11T05:39:06.028Z,0.00
2022-12-11T05:40:06.008Z,0.00
2022-12-11T05:41:06.022Z,0.00
2022-12-11T05:42:05.991Z,0.00
2022-12-11T05:43:05.985Z,0.00
2022-12-11T05:44:05.986Z,0.00
2022-12-11T05:45:05.953Z,0.00
2022-12-11T05:46:05.968Z,0.00
2022-12-11T05:47:05.929Z,0.00
2022-12-11T05:48:05.927Z,0.00
2022-12-11T05:49:05.917Z,0.00
2022-12-11T05:50:05.988Z,0.00
2022-12-11T05:51:05.911Z,0.00
2022-12-11T05:52:05.929Z,0.00
2022-12-11T05:53:05.880Z,0.00
2022-12-11T05:54:05.857Z,0.00
2022-12-11T05:55:05.862Z,0.00
2022-12-11T05:56:05.916Z,0.00
2022-12-11T05:57:05.833Z,0.00
2022-12-11T05:58:05.848Z,0.00
2022-12-11T05:59:05.808Z,0.00
2022-12-11T06:00:05.800Z,0.00
2022-12-11T06:01:05.818Z,0.00
2022-12-11T06:02:05.863Z,0.00
2022-12-11T06:03:05.924Z,0.00
2022-12-11T06:04:05.766Z,0.00
2022-12-11T06:05:05.776Z,0.00
2022-12-11T06:06:05.768Z,0.00
2022-12-11T06:07:05.752Z,0.00
2022-12-11T06:08:05.779Z,0.00
2022-12-11T06:09:05.713Z,0.00
2022-12-11T06:10:05.723Z,0.00
2022-12-11T06:11:05.679Z,0.00
2022-12-11T06:12:05.741Z,0.00
2022-12-11T06:13:05.721Z,0.00
2022-12-11T06:14:05.654Z,0.00
2022-12-11T06:15:05.650Z,0.00
2022-12-11T06:16:05.745Z,0.00
2022-12-11T06:17:05.653Z,0.00
2022-12-11T06:18:05.622Z,0.00
2022-12-11T06:19:05.609Z,0.00
2022-12-11T06:20:05.660Z,0.00
2022-12-11T06:21:05.592Z,0.00
2022-12-11T06:22:05.658Z,0.00
2022-12-11T06:23:05.572Z,0.00
2022-12-11T06:24:05.555Z,0.00
2022-12-11T06:25:05.576Z,0.00
2022-12-11T06:26:05.550Z,0.00
2022-12-11T06:27:05.569Z,0.00
2022-12-11T06:28:05.552Z,0.00
2022-12-11T06:29:09.198Z,0.00
2022-12-11T06:30:05.515Z,0.00
2022-12-11T06:31:05.475Z,0.00
2022-12-11T06:32:05.601Z,0.00
2022-12-11T06:33:05.754Z,0.00
2022-12-11T06:34:05.461Z,0.00
2022-12-11T06:35:05.483Z,0.00
2022-12-11T06:36:05.483Z,0.00
2022-12-11T06:37:05.476Z,0.00
2022-12-11T06:38:05.418Z,0.00
2022-12-11T06:39:05.433Z,0.00
2022-12-11T06:40:05.440Z,0.00
2022-12-11T06:41:05.440Z,0.00
2022-12-11T06:42:05.436Z,0.00
2022-12-11T06:43:05.350Z,0.00
2022-12-11T06:44:05.343Z,0.00
2022-12-11T06:45:05.348Z,0.00
2022-12-11T06:46:05.480Z,0.00
2022-12-11T06:47:05.340Z,0.00
2022-12-11T06:48:05.325Z,0.00
2022-12-11T06:49:05.296Z,0.00
2022-12-11T06:50:05.303Z,0.00
2022-12-11T06:51:05.267Z,0.00
2022-12-11T06:52:05.326Z,0.00
2022-12-11T06:53:05.249Z,0.00
2022-12-11T06:54:05.246Z,0.00
2022-12-11T06:55:05.230Z,0.00
2022-12-11T06:56:05.237Z,0.00
2022-12-11T06:57:05.232Z,0.00
2022-12-11T06:58:05.207Z,0.00
2022-12-11T06:59:07.478Z,1.00
2022-12-11T07:00:05.185Z,0.00
2022-12-11T07:01:05.229Z,0.00
2022-12-11T07:02:05.294Z,1.00
2022-12-11T07:03:05.115Z,1.00
2022-12-11T07:04:05.084Z,1.00
2022-12-11T07:05:05.094Z,1.00
2022-12-11T07:06:05.064Z,1.00
2022-12-11T07:07:05.071Z,1.00
2022-12-11T07:08:05.096Z,2.00
2022-12-11T07:09:05.025Z,2.00
2022-12-11T07:10:08.416Z,0.00
2022-12-11T07:11:05.025Z,2.00
2022-12-11T07:12:05.043Z,2.00
2022-12-11T07:13:04.999Z,2.00
2022-12-11T07:14:05.004Z,2.00
2022-12-11T07:15:04.986Z,2.00
2022-12-11T07:16:05.017Z,1.00
2022-12-11T07:17:04.977Z,2.00
2022-12-11T07:18:04.989Z,2.00
2022-12-11T07:19:04.926Z,1.00
2022-12-11T07:20:04.932Z,1.00
2022-12-11T07:21:04.909Z,1.00
2022-12-11T07:22:04.943Z,3.00
2022-12-11T07:23:04.895Z,2.00
2022-12-11T07:24:04.941Z,2.00
2022-12-11T07:25:04.878Z,3.00
2022-12-11T07:26:04.863Z,5.00
2022-12-11T07:27:04.867Z,5.00
2022-12-11T07:28:04.850Z,5.00
2022-12-11T07:29:04.831Z,5.00
2022-12-11T07:30:04.927Z,5.00
2022-12-11T07:31:04.886Z,5.00
2022-12-11T07:32:04.959Z,4.00
2022-12-11T07:33:04.818Z,5.00
2022-12-11T07:34:04.830Z,7.00
2022-12-11T07:35:04.783Z,5.00
2022-12-11T07:36:04.785Z,5.00
2022-12-11T07:37:04.778Z,4.00
2022-12-11T07:38:04.736Z,6.00
2022-12-11T07:39:04.769Z,8.00
2022-12-11T07:40:04.726Z,8.00
2022-12-11T07:41:04.759Z,5.00
2022-12-11T07:42:04.713Z,5.00
2022-12-11T07:43:04.687Z,8.00
2022-12-11T07:44:04.683Z,12.00
2022-12-11T07:45:04.668Z,11.00
2022-12-11T07:46:04.735Z,11.00
2022-12-11T07:47:04.670Z,11.00
2022-12-11T07:48:04.642Z,13.00
2022-12-11T07:49:04.659Z,15.00
2022-12-11T07:50:04.631Z,17.00
2022-12-11T07:51:04.611Z,18.00
2022-12-11T07:52:04.614Z,17.00
2022-12-11T07:53:04.622Z,14.00
2022-12-11T07:54:04.581Z,13.00
2022-12-11T07:55:04.633Z,14.00
2022-12-11T07:56:04.561Z,12.00
2022-12-11T07:57:06.260Z,19.00
2022-12-11T07:58:04.561Z,20.00
2022-12-11T07:59:04.525Z,23.00
2022-12-11T08:00:04.513Z,23.00
2022-12-11T08:01:04.535Z,21.00
2022-12-11T08:02:04.598Z,24.00
2022-12-11T08:03:04.508Z,24.00
2022-12-11T08:04:04.493Z,17.00
2022-12-11T08:05:04.464Z,18.00
2022-12-11T08:06:04.474Z,16.00
2022-12-11T08:07:04.448Z,19.00
2022-12-11T08:08:04.490Z,31.00
2022-12-11T08:09:04.444Z,32.00
2022-12-11T08:10:04.461Z,28.00
2022-12-11T08:11:04.403Z,23.00
2022-12-11T08:12:04.394Z,28.00
2022-12-11T08:13:04.433Z,29.00
2022-12-11T08:14:04.402Z,30.00
2022-12-11T08:15:04.379Z,35.00
2022-12-11T08:16:04.374Z,40.00
2022-12-11T08:17:04.404Z,44.00
2022-12-11T08:18:04.341Z,40.00
2022-12-11T08:19:04.323Z,39.00
2022-12-11T08:20:04.315Z,34.00
2022-12-11T08:21:04.382Z,41.00
2022-12-11T08:22:10.771Z,45.00
2022-12-11T08:23:04.293Z,40.00
2022-12-11T08:24:04.258Z,43.00
2022-12-11T08:25:04.257Z,42.00
2022-12-11T08:26:04.254Z,40.00
2022-12-11T08:27:04.261Z,45.00
2022-12-11T08:28:04.235Z,46.00
2022-12-11T08:29:04.222Z,51.00
2022-12-11T08:30:04.206Z,54.00
2022-12-11T08:31:04.233Z,56.00
2022-12-11T08:32:07.619Z,41.00
2022-12-11T08:33:04.207Z,49.00
2022-12-11T08:34:04.158Z,53.00
2022-12-11T08:35:04.156Z,51.00
2022-12-11T08:36:04.138Z,47.00
2022-12-11T08:37:04.124Z,49.00
2022-12-11T08:38:04.136Z,50.00
2022-12-11T08:39:04.111Z,46.00
2022-12-11T08:40:04.105Z,54.00
2022-12-11T08:41:04.092Z,53.00
2022-12-11T08:42:04.070Z,53.00
2022-12-11T08:43:04.093Z,62.00
2022-12-11T08:44:05.964Z,53.00
2022-12-11T08:45:04.062Z,64.00
2022-12-11T08:46:04.101Z,55.00
2022-12-11T08:47:04.042Z,60.00
2022-12-11T08:48:04.067Z,68.00
2022-12-11T08:49:04.018Z,77.00
2022-12-11T08:50:04.002Z,79.00
2022-12-11T08:51:03.989Z,76.00
2022-12-11T08:52:03.977Z,65.00
2022-12-11T08:53:03.985Z,56.00
2022-12-11T08:54:03.952Z,64.00
2022-12-11T08:55:03.968Z,63.00
2022-12-11T08:56:03.941Z,61.00
2022-12-11T08:57:03.924Z,60.00
2022-12-11T08:58:03.913Z,61.00
2022-12-11T08:59:03.964Z,58.00
2022-12-11T09:00:03.900Z,65.00
2022-12-11T09:01:03.911Z,69.00
2022-12-11T09:02:03.881Z,71.00
2022-12-11T09:03:05.343Z,77.00
2022-12-11T09:04:03.880Z,82.00
2022-12-11T09:05:03.839Z,85.00
2022-12-11T09:06:10.355Z,101.00
2022-12-11T09:07:03.816Z,110.00
2022-12-11T09:08:03.874Z,119.00
2022-12-11T09:09:03.822Z,97.00
2022-12-11T09:10:03.792Z,88.00
2022-12-11T09:11:03.778Z,90.00
2022-12-11T09:12:03.785Z,91.00
2022-12-11T09:13:03.765Z,96.00
2022-12-11T09:14:07.523Z,93.00
2022-12-11T09:15:03.739Z,92.00
2022-12-11T09:16:03.833Z,91.00
2022-12-11T09:17:03.753Z,101.00
2022-12-11T09:18:03.700Z,99.00
2022-12-11T09:19:03.743Z,96.00
2022-12-11T09:20:03.694Z,100.00
2022-12-11T09:21:03.695Z,96.00
2022-12-11T09:22:03.656Z,101.00
2022-12-11T09:23:03.661Z,101.00
2022-12-11T09:24:03.681Z,103.00
2022-12-11T09:25:03.640Z,102.00
2022-12-11T09:26:03.620Z,106.00
2022-12-11T09:27:03.632Z,110.00
2022-12-11T09:28:03.632Z,122.00
2022-12-11T09:29:03.619Z,118.00
2022-12-11T09:30:03.589Z,111.00
2022-12-11T09:31:03.636Z,112.00
2022-12-11T09:32:03.567Z,114.00
2022-12-11T09:33:03.555Z,120.00
2022-12-11T09:34:03.572Z,117.00
2022-12-11T09:35:03.543Z,106.00
2022-12-11T09:36:03.518Z,108.00
2022-12-11T09:37:03.510Z,110.00
2022-12-11T09:38:03.493Z,107.00
2022-12-11T09:39:03.527Z,108.00
2022-12-11T09:40:07.537Z,108.00
2022-12-11T09:41:03.475Z,110.00
2022-12-11T09:42:03.485Z,104.00
2022-12-11T09:43:03.461Z,106.00
2022-12-11T09:44:03.477Z,105.00
2022-12-11T09:45:03.435Z,103.00
2022-12-11T09:46:03.451Z,100.00
2022-12-11T09:47:03.405Z,97.00
2022-12-11T09:48:03.388Z,100.00
2022-12-11T09:49:03.441Z,107.00
2022-12-11T09:50:03.369Z,112.00
2022-12-11T09:51:03.369Z,119.00
2022-12-11T09:52:03.452Z,122.00
2022-12-11T09:53:03.422Z,115.00
2022-12-11T09:54:03.362Z,107.00
2022-12-11T09:55:03.330Z,94.00
2022-12-11T09:56:03.311Z,99.00
2022-12-11T09:57:03.307Z,97.00
2022-12-11T09:58:03.287Z,99.00
2022-12-11T09:59:03.311Z,94.00
2022-12-11T10:00:05.409Z,96.00
2022-12-11T10:01:03.316Z,102.00
2022-12-11T10:02:03.284Z,103.00
2022-12-11T10:03:03.308Z,100.00
2022-12-11T10:04:03.263Z,97.00
2022-12-11T10:05:03.223Z,101.00
2022-12-11T10:06:05.054Z,106.00
2022-12-11T10:07:03.203Z,114.00
2022-12-11T10:08:03.225Z,106.00
2022-12-11T10:09:03.210Z,103.00
2022-12-11T10:10:03.169Z,109.00
2022-12-11T10:11:03.167Z,105.00
2022-12-11T10:12:03.191Z,94.00
2022-12-11T10:13:03.156Z,99.00
2022-12-11T10:14:03.167Z,103.00
2022-12-11T10:15:03.177Z,105.00
2022-12-11T10:16:03.164Z,102.00
2022-12-11T10:17:03.095Z,98.00
2022-12-11T10:18:05.085Z,94.00
2022-12-11T10:19:03.117Z,105.00
2022-12-11T10:20:03.079Z,100.00
2022-12-11T10:21:03.067Z,91.00
2022-12-11T10:22:03.046Z,92.00
2022-12-11T10:23:03.040Z,109.00
2022-12-11T10:24:03.064Z,109.00
2022-12-11T10:25:11.835Z,105.00
2022-12-11T10:26:03.012Z,85.00
2022-12-11T10:27:02.995Z,75.00
2022-12-11T10:28:03.007Z,108.00
2022-12-11T10:29:02.975Z,138.00
2022-12-11T10:30:03.010Z,123.00
2022-12-11T10:31:03.031Z,119.00
2022-12-11T10:32:02.950Z,74.00
2022-12-11T10:33:09.452Z,69.00
2022-12-11T10:34:02.918Z,102.00
2022-12-11T10:35:10.812Z,91.00
2022-12-11T10:36:09.386Z,100.00
2022-12-11T10:37:02.933Z,106.00
2022-12-11T10:38:02.922Z,101.00
2022-12-11T10:39:02.885Z,122.00
2022-12-11T10:40:02.885Z,126.00
2022-12-11T10:41:02.854Z,110.00
2022-12-11T10:42:02.848Z,83.00
2022-12-11T10:43:02.834Z,113.00
2022-12-11T10:44:02.831Z,122.00
2022-12-11T10:45:02.832Z,117.00
2022-12-11T10:46:02.873Z,126.00
2022-12-11T10:47:02.823Z,116.00
2022-12-11T10:48:02.798Z,118.00
2022-12-11T10:49:02.778Z,128.00
2022-12-11T10:50:02.798Z,135.00
2022-12-11T10:51:02.764Z,137.00
2022-12-11T10:52:02.785Z,145.00
2022-12-11T10:53:02.763Z,134.00
2022-12-11T10:54:06.996Z,124.00
2022-12-11T10:55:02.768Z,123.00
2022-12-11T10:56:02.700Z,109.00
2022-12-11T10:57:02.713Z,107.00
2022-12-11T10:58:02.676Z,118.00
2022-12-11T10:59:02.693Z,120.00
2022-12-11T11:00:02.684Z,117.00
2022-12-11T11:01:02.664Z,115.00
2022-12-11T11:02:02.804Z,119.00
2022-12-11T11:03:02.711Z,124.00
2022-12-11T11:04:02.620Z,126.00
2022-12-11T11:05:02.628Z,124.00
2022-12-11T11:06:02.635Z,126.00
2022-12-11T11:07:02.587Z,128.00
2022-12-11T11:08:02.633Z,129.00
2022-12-11T11:09:02.568Z,119.00
2022-12-11T11:10:02.576Z,112.00
2022-12-11T11:11:02.555Z,115.00
2022-12-11T11:12:07.623Z,116.00
2022-12-11T11:13:02.532Z,114.00
2022-12-11T11:14:02.592Z,114.00
2022-12-11T11:15:02.555Z,109.00
2022-12-11T11:16:02.538Z,107.00
2022-12-11T11:17:02.488Z,121.00
2022-12-11T11:18:02.475Z,113.00
2022-12-11T11:19:02.482Z,121.00
2022-12-11T11:20:02.471Z,131.00
2022-12-11T11:21:02.472Z,126.00
2022-12-11T11:22:02.432Z,116.00
2022-12-11T11:23:02.430Z,114.00
2022-12-11T11:24:02.500Z,112.00
2022-12-11T11:25:02.422Z,108.00
2022-12-11T11:26:02.448Z,89.00
2022-12-11T11:27:13.309Z,107.00
2022-12-11T11:28:02.379Z,116.00
2022-12-11T11:29:02.363Z,111.00
2022-12-11T11:30:02.384Z,111.00
2022-12-11T11:31:02.389Z,99.00
2022-12-11T11:32:02.340Z,83.00
2022-12-11T11:33:02.399Z,78.00
2022-12-11T11:34:02.378Z,88.00
2022-12-11T11:35:02.313Z,89.00
2022-12-11T11:36:02.292Z,96.00
2022-12-11T11:37:02.326Z,101.00
2022-12-11T11:38:02.268Z,95.00
2022-12-11T11:39:02.258Z,97.00
2022-12-11T11:40:02.300Z,106.00
2022-12-11T11:41:06.561Z,102.00
2022-12-11T11:42:02.249Z,98.00
2022-12-11T11:43:02.212Z,97.00
2022-12-11T11:44:02.227Z,89.00
2022-12-11T11:45:02.193Z,90.00
2022-12-11T11:46:02.205Z,90.00
2022-12-11T11:47:02.181Z,94.00
2022-12-11T11:48:06.270Z,89.00
2022-12-11T11:49:02.204Z,97.00
2022-12-11T11:50:02.139Z,85.00
2022-12-11T11:51:02.159Z,96.00
2022-12-11T11:52:02.125Z,100.00
2022-12-11T11:53:02.117Z,88.00
2022-12-11T11:54:02.106Z,81.00
2022-12-11T11:55:02.086Z,91.00
2022-12-11T11:56:02.105Z,93.00
2022-12-11T11:57:02.263Z,98.00
2022-12-11T11:58:02.061Z,101.00
2022-12-11T11:59:02.084Z,92.00
2022-12-11T12:00:02.046Z,85.00
2022-12-11T12:01:02.058Z,78.00
2022-12-11T12:02:02.027Z,72.00
2022-12-11T12:03:02.064Z,79.00
2022-12-11T12:04:02.007Z,81.00
2022-12-11T12:05:02.018Z,86.00
2022-12-11T12:06:02.009Z,84.00
2022-12-11T12:07:01.987Z,81.00
2022-12-11T12:08:01.988Z,76.00
2022-12-11T12:09:01.945Z,68.00
2022-12-11T12:10:02.009Z,72.00
2022-12-11T12:11:01.956Z,71.00
2022-12-11T12:12:01.918Z,72.00
2022-12-11T12:13:01.918Z,66.00
2022-12-11T12:14:01.920Z,71.00
2022-12-11T12:15:01.903Z,73.00
2022-12-11T12:16:02.006Z,64.00
2022-12-11T12:17:01.944Z,68.00
2022-12-11T12:18:01.858Z,53.00
2022-12-11T12:19:01.853Z,55.00
2022-12-11T12:20:01.850Z,49.00
2022-12-11T12:21:01.859Z,58.00
2022-12-11T12:22:01.858Z,77.00
2022-12-11T12:23:01.828Z,70.00
2022-12-11T12:24:01.821Z,61.00
2022-12-11T12:25:01.795Z,68.00
2022-12-11T12:26:01.814Z,66.00
2022-12-11T12:27:01.805Z,68.00
2022-12-11T12:28:01.771Z,80.00
2022-12-11T12:29:01.756Z,81.00
2022-12-11T12:30:01.738Z,77.00
2022-12-11T12:31:01.749Z,80.00
2022-12-11T12:32:01.716Z,86.00
2022-12-11T12:33:01.736Z,90.00
2022-12-11T12:34:01.733Z,94.00
2022-12-11T12:35:01.689Z,98.00
2022-12-11T12:36:06.591Z,97.00
2022-12-11T12:37:01.676Z,105.00
2022-12-11T12:38:01.655Z,104.00
2022-12-11T12:39:01.672Z,103.00
2022-12-11T12:40:01.635Z,103.00
2022-12-11T12:41:01.668Z,111.00
2022-12-11T12:42:07.240Z,114.00
2022-12-11T12:43:01.616Z,109.00
2022-12-11T12:44:01.918Z,112.00
2022-12-11T12:45:08.341Z,114.00
2022-12-11T12:46:08.098Z,114.00
2022-12-11T12:47:09.179Z,107.00
2022-12-11T12:48:01.559Z,93.00
2022-12-11T12:49:01.543Z,94.00
2022-12-11T12:50:01.535Z,93.00
2022-12-11T12:51:01.524Z,94.00
2022-12-11T12:52:01.537Z,88.00
2022-12-11T12:53:01.515Z,88.00
2022-12-11T12:54:01.503Z,76.00
2022-12-11T12:55:01.478Z,66.00
2022-12-11T12:56:01.474Z,63.00
2022-12-11T12:57:01.479Z,64.00
2022-12-11T12:58:01.458Z,71.00
2022-12-11T12:59:01.449Z,69.00
2022-12-11T13:00:01.442Z,73.00
2022-12-11T13:01:01.458Z,72.00
2022-12-11T13:02:01.532Z,69.00
2022-12-11T13:03:01.407Z,70.00